createdAt,value
2022-09-17T00:01:22.235Z,62.80
2022-09-17T00:03:53.932Z,62.80
2022-09-17T00:06:22.436Z,62.60
2022-09-17T00:08:49.805Z,62.10
2022-09-17T00:11:23.848Z,62.00
2022-09-17T00:13:52.828Z,61.90
2022-09-17T00:16:45.247Z,61.60
2022-09-17T00:19:30.367Z,61.10
2022-09-17T00:21:57.658Z,60.90
2022-09-17T00:24:24.915Z,60.80
2022-09-17T00:26:52.253Z,61.00
2022-09-17T00:29:19.838Z,61.50
2022-09-17T00:31:47.048Z,62.20
2022-09-17T00:34:14.503Z,62.70
2022-09-17T00:36:41.734Z,62.90
2022-09-17T00:39:10.461Z,63.20
2022-09-17T00:41:38.183Z,63.50
2022-09-17T00:44:41.567Z,63.70
2022-09-17T00:47:14.220Z,63.90
2022-09-17T00:49:41.674Z,63.70
2022-09-17T00:52:12.433Z,63.00
2022-09-17T00:54:42.560Z,62.00
2022-09-17T00:57:09.832Z,61.30
2022-09-17T00:59:37.399Z,60.80
2022-09-17T01:02:05.292Z,60.40
2022-09-17T01:04:32.699Z,59.90
2022-09-17T01:07:08.772Z,59.70
2022-09-17T01:10:01.249Z,59.40
2022-09-17T01:12:55.862Z,60.00
2022-09-17T01:15:29.120Z,60.30
2022-09-17T01:18:05.359Z,60.70
2022-09-17T01:20:47.686Z,61.10
2022-09-17T01:23:47.058Z,61.40
2022-09-17T01:26:42.532Z,61.60
2022-09-17T01:29:47.207Z,61.70
2022-09-17T01:32:46.168Z,61.70
2022-09-17T01:35:20.011Z,61.70
2022-09-17T01:38:05.912Z,61.80
2022-09-17T01:40:45.934Z,61.90
2022-09-17T01:43:21.606Z,62.00
2022-09-17T01:45:57.551Z,62.30
2022-09-17T01:48:31.478Z,62.30
2022-09-17T01:51:06.061Z,62.70
2022-09-17T01:54:11.821Z,63.20
2022-09-17T01:57:02.158Z,63.50
2022-09-17T02:00:06.159Z,63.50
2022-09-17T02:02:49.478Z,63.50
2022-09-17T02:05:32.588Z,63.50
2022-09-17T02:08:52.249Z,63.50
2022-09-17T02:11:20.539Z,63.40
2022-09-17T02:13:50.649Z,63.10
2022-09-17T02:16:28.930Z,62.80
2022-09-17T02:19:21.287Z,62.40
2022-09-17T02:21:51.315Z,62.10
2022-09-17T02:24:46.484Z,61.20
2022-09-17T02:27:37.969Z,60.40
2022-09-17T02:30:06.505Z,59.60
2022-09-17T02:32:33.905Z,59.00
2022-09-17T02:35:01.424Z,58.40
2022-09-17T02:37:28.610Z,57.20
2022-09-17T02:39:56.843Z,56.50
2022-09-17T02:42:45.698Z,56.00
2022-09-17T02:45:34.232Z,55.30
2022-09-17T02:48:17.945Z,55.00
2022-09-17T02:50:45.162Z,54.20
2022-09-17T02:53:40.606Z,53.90
2022-09-17T02:56:26.149Z,53.60
2022-09-17T02:59:27.666Z,53.80
2022-09-17T03:02:03.641Z,53.80
2022-09-17T03:04:32.417Z,54.10
2022-09-17T03:07:00.605Z,54.40
2022-09-17T03:09:27.808Z,54.60
2022-09-17T03:11:54.899Z,54.80
2022-09-17T03:14:22.075Z,55.00
2022-09-17T03:16:51.651Z,55.10
2022-09-17T03:19:19.541Z,55.00
2022-09-17T03:21:47.017Z,55.00
2022-09-17T03:24:14.231Z,54.50
2022-09-17T03:26:41.386Z,54.40
2022-09-17T03:29:08.474Z,54.10
2022-09-17T03:31:35.690Z,54.10
2022-09-17T03:34:02.938Z,54.10
2022-09-17T03:36:29.994Z,54.30
2022-09-17T03:38:58.150Z,54.10
2022-09-17T03:41:26.157Z,53.80
2022-09-17T03:43:53.641Z,53.40
2022-09-17T03:46:21.468Z,52.60
2022-09-17T03:48:48.744Z,52.10
2022-09-17T03:51:15.867Z,51.70
2022-09-17T03:53:43.203Z,51.40
2022-09-17T03:56:10.530Z,51.30
2022-09-17T03:58:37.643Z,51.20
2022-09-17T04:01:05.095Z,51.00
2022-09-17T04:03:32.926Z,51.00
2022-09-17T04:06:00.188Z,51.20
2022-09-17T04:08:27.295Z,51.20
2022-09-17T04:10:54.728Z,51.40
2022-09-17T04:13:21.790Z,51.40
2022-09-17T04:15:49.180Z,51.40
2022-09-17T04:18:16.768Z,51.00
2022-09-17T04:20:44.111Z,49.60
2022-09-17T04:23:14.107Z,48.70
2022-09-17T04:25:41.566Z,47.30
2022-09-17T04:28:08.696Z,43.90
2022-09-17T04:30:36.201Z,45.20
2022-09-17T04:33:03.810Z,45.50
2022-09-17T04:35:31.053Z,45.80
2022-09-17T04:37:58.787Z,46.40
2022-09-17T04:40:27.480Z,47.20
2022-09-17T04:42:56.526Z,47.90
2022-09-17T04:45:25.779Z,47.40
2022-09-17T04:47:52.913Z,47.40
2022-09-17T04:50:21.138Z,47.50
2022-09-17T04:52:48.958Z,47.00
2022-09-17T04:55:16.802Z,46.30
2022-09-17T04:57:52.220Z,46.00
2022-09-17T05:00:21.413Z,45.80
2022-09-17T05:02:50.667Z,45.20
2022-09-17T05:05:19.064Z,44.60
2022-09-17T05:07:48.090Z,44.40
2022-09-17T05:10:17.937Z,44.20
2022-09-17T05:12:57.978Z,44.30
2022-09-17T05:15:26.223Z,44.20
2022-09-17T05:17:53.545Z,44.40
2022-09-17T05:20:21.075Z,44.30
2022-09-17T05:22:51.524Z,43.80
2022-09-17T05:25:24.209Z,43.60
2022-09-17T05:27:52.872Z,43.50
2022-09-17T05:30:20.460Z,43.30
2022-09-17T05:32:47.960Z,43.60
2022-09-17T05:35:15.903Z,43.80
2022-09-17T05:37:42.943Z,44.20
2022-09-17T05:40:10.520Z,44.60
2022-09-17T05:42:37.832Z,45.20
2022-09-17T05:45:05.674Z,45.50
2022-09-17T05:47:32.959Z,46.20
2022-09-17T05:50:03.050Z,46.60
2022-09-17T05:52:30.492Z,46.90
2022-09-17T05:54:57.723Z,47.90
2022-09-17T05:57:25.393Z,48.10
2022-09-17T05:59:52.695Z,48.40
2022-09-17T06:02:20.066Z,48.50
2022-09-17T06:04:47.289Z,48.40
2022-09-17T06:07:14.508Z,48.50
2022-09-17T06:09:41.645Z,48.40
2022-09-17T06:12:09.083Z,48.40
2022-09-17T06:14:36.241Z,48.50
2022-09-17T06:17:03.424Z,48.80
2022-09-17T06:19:30.613Z,48.90
2022-09-17T06:21:57.883Z,49.20
2022-09-17T06:24:25.183Z,49.10
2022-09-17T06:26:52.826Z,49.00
2022-09-17T06:29:20.891Z,48.90
2022-09-17T06:31:51.335Z,48.50
2022-09-17T06:34:18.538Z,48.20
2022-09-17T06:36:45.997Z,48.00
2022-09-17T06:39:13.469Z,48.10
2022-09-17T06:41:44.648Z,48.10
2022-09-17T06:44:11.786Z,47.90
2022-09-17T06:46:51.061Z,48.10
2022-09-17T06:49:19.554Z,48.40
2022-09-17T06:51:46.744Z,48.70
2022-09-17T06:54:13.834Z,48.90
2022-09-17T06:56:40.980Z,48.90
2022-09-17T06:59:08.037Z,48.80
2022-09-17T07:01:35.289Z,48.80
2022-09-17T07:04:02.640Z,48.90
2022-09-17T07:06:32.960Z,48.80
2022-09-17T07:09:00.579Z,48.90
2022-09-17T07:11:29.662Z,49.20
2022-09-17T07:13:57.362Z,49.70
2022-09-17T07:16:24.691Z,50.20
2022-09-17T07:18:51.870Z,50.70
2022-09-17T07:21:19.287Z,50.90
2022-09-17T07:23:46.758Z,50.90
2022-09-17T07:26:15.850Z,50.80
2022-09-17T07:28:46.325Z,50.70
2022-09-17T07:31:16.641Z,50.40
2022-09-17T07:33:45.143Z,50.00
2022-09-17T07:36:15.115Z,49.90
2022-09-17T07:38:42.446Z,50.00
2022-09-17T07:41:15.228Z,50.30
2022-09-17T07:43:43.304Z,50.50
2022-09-17T07:46:18.136Z,50.60
2022-09-17T07:48:46.792Z,50.20
2022-09-17T07:51:22.298Z,49.20
2022-09-17T07:53:57.921Z,47.70
2022-09-17T07:56:26.896Z,47.10
2022-09-17T07:58:54.356Z,45.10
2022-09-17T08:01:22.769Z,44.50
2022-09-17T08:03:54.630Z,43.40
2022-09-17T08:06:26.358Z,42.90
2022-09-17T08:08:54.141Z,42.10
2022-09-17T08:14:14.463Z,41.40
2022-09-17T08:16:42.038Z,40.80
2022-09-17T08:19:11.027Z,40.10
2022-09-17T08:21:38.722Z,40.10
2022-09-17T08:24:06.195Z,38.90
2022-09-17T08:26:33.619Z,38.50
2022-09-17T08:29:01.017Z,38.60
2022-09-17T08:31:33.377Z,38.50
2022-09-17T08:34:01.188Z,37.80
2022-09-17T08:36:28.636Z,38.10
2022-09-17T08:38:56.310Z,35.60
2022-09-17T08:41:35.842Z,35.30
2022-09-17T08:44:16.713Z,34.70
2022-09-17T08:46:59.844Z,34.70
2022-09-17T08:49:47.940Z,34.60
2022-09-17T08:52:24.200Z,35.10
2022-09-17T08:54:54.338Z,34.80
2022-09-17T08:57:25.971Z,34.30
2022-09-17T09:00:26.449Z,34.50
2022-09-17T09:03:17.923Z,34.10
2022-09-17T09:05:47.957Z,34.30
2022-09-17T09:08:43.337Z,34.30
2022-09-17T09:11:27.587Z,34.60
2022-09-17T09:14:26.542Z,33.80
2022-09-17T09:16:55.651Z,33.60
2022-09-17T09:19:32.063Z,34.00
2022-09-17T09:22:39.171Z,33.40
2022-09-17T09:25:18.480Z,32.90
2022-09-17T09:27:52.460Z,32.80
2022-09-17T09:30:23.822Z,31.70
2022-09-17T09:32:55.771Z,30.90
2022-09-17T09:35:35.572Z,31.40
2022-09-17T09:38:31.468Z,31.50
2022-09-17T09:41:14.583Z,31.10
2022-09-17T09:44:05.042Z,30.60
2022-09-17T09:47:01.712Z,30.30
2022-09-17T09:50:00.619Z,29.70
2022-09-17T09:52:44.822Z,29.60
2022-09-17T09:55:40.921Z,29.80
2022-09-17T09:58:25.034Z,29.70
2022-09-17T10:00:52.388Z,29.10
2022-09-17T10:03:26.726Z,29.40
2022-09-17T10:06:02.018Z,29.80
2022-09-17T10:08:32.123Z,29.60
2022-09-17T10:11:04.623Z,29.90
2022-09-17T10:13:38.199Z,29.90
2022-09-17T10:16:25.324Z,30.10
2022-09-17T10:19:08.097Z,29.90
2022-09-17T10:21:39.604Z,29.60
2022-09-17T10:24:15.019Z,29.60
2022-09-17T10:26:42.599Z,29.90
2022-09-17T10:29:18.873Z,29.70
2022-09-17T10:31:58.182Z,29.40
2022-09-17T10:34:30.834Z,29.30
2022-09-17T10:36:58.885Z,29.20
2022-09-17T10:39:36.658Z,28.60
2022-09-17T10:42:18.542Z,28.50
2022-09-17T10:44:53.265Z,28.30
2022-09-17T10:47:25.751Z,28.30
2022-09-17T10:50:08.253Z,28.00
2022-09-17T10:52:42.447Z,28.20
2022-09-17T10:55:28.014Z,28.00
2022-09-17T10:58:12.294Z,28.00
2022-09-17T11:00:59.447Z,27.70
2022-09-17T11:03:49.213Z,26.20
2022-09-17T11:06:53.057Z,25.90
2022-09-17T11:09:50.207Z,25.80
2022-09-17T11:12:42.162Z,25.30
2022-09-17T11:15:30.926Z,24.50
2022-09-17T11:18:14.805Z,24.30
2022-09-17T11:21:02.078Z,24.60
2022-09-17T11:23:50.336Z,24.80
2022-09-17T11:26:32.908Z,24.30
2022-09-17T11:29:31.861Z,24.10
2022-09-17T11:32:32.113Z,23.70
2022-09-17T11:35:11.634Z,23.70
2022-09-17T11:37:44.876Z,23.70
2022-09-17T11:40:27.417Z,24.40
2022-09-17T11:42:59.297Z,24.30
2022-09-17T11:45:36.603Z,24.00
2022-09-17T11:48:17.061Z,24.60
2022-09-17T11:50:59.174Z,24.70
2022-09-17T11:53:51.548Z,24.70
2022-09-17T11:56:42.342Z,24.70
2022-09-17T11:59:36.278Z,24.80
2022-09-17T12:02:09.284Z,24.90
2022-09-17T12:04:54.621Z,24.80
2022-09-17T12:07:27.893Z,24.70
2022-09-17T12:10:07.172Z,24.30
2022-09-17T12:12:50.286Z,24.60
2022-09-17T12:15:27.771Z,24.60
2022-09-17T12:18:31.853Z,24.90
2022-09-17T12:21:03.118Z,25.00
2022-09-17T12:23:49.829Z,25.20
2022-09-17T12:26:48.390Z,24.80
2022-09-17T12:29:27.638Z,24.60
2022-09-17T12:32:28.752Z,24.40
2022-09-17T12:34:58.976Z,24.50
2022-09-17T12:37:32.974Z,24.60
2022-09-17T12:40:23.594Z,23.80
2022-09-17T12:43:19.464Z,23.60
2022-09-17T12:45:50.636Z,24.00
2022-09-17T12:48:38.259Z,23.60
2022-09-17T12:51:37.875Z,24.20
2022-09-17T12:54:31.352Z,24.70
2022-09-17T12:57:23.599Z,24.90
2022-09-17T13:00:13.750Z,24.80
2022-09-17T13:02:48.349Z,25.00
2022-09-17T13:05:21.439Z,24.90
2022-09-17T13:08:22.651Z,25.50
2022-09-17T13:11:17.844Z,32.40
2022-09-17T13:14:20.057Z,34.20
2022-09-17T13:16:56.445Z,38.60
2022-09-17T13:19:39.624Z,38.30
2022-09-17T13:22:19.196Z,39.00
2022-09-17T13:24:49.146Z,40.90
2022-09-17T13:27:28.299Z,43.50
2022-09-17T13:29:55.471Z,46.20
2022-09-17T13:32:35.229Z,47.20
2022-09-17T13:35:09.737Z,46.80
2022-09-17T13:37:59.204Z,47.00
2022-09-17T13:40:28.217Z,47.60
2022-09-17T13:42:56.552Z,48.60
2022-09-17T13:45:26.286Z,49.90
2022-09-17T13:47:58.419Z,51.70
2022-09-17T13:50:30.486Z,53.30
2022-09-17T13:53:00.022Z,56.30
2022-09-17T13:55:36.775Z,57.60
2022-09-17T13:58:08.697Z,57.90
2022-09-17T14:00:55.706Z,57.80
2022-09-17T14:03:29.059Z,57.50
2022-09-17T14:06:05.945Z,58.10
2022-09-17T14:08:45.538Z,58.10
2022-09-17T14:11:31.177Z,58.40
2022-09-17T14:14:21.963Z,58.40
2022-09-17T14:16:50.604Z,58.90
2022-09-17T14:19:29.889Z,59.50
2022-09-17T14:22:03.178Z,59.80
2022-09-17T14:24:46.808Z,59.70
2022-09-17T14:27:31.873Z,59.60
2022-09-17T14:30:15.872Z,59.60
2022-09-17T14:32:54.468Z,58.80
2022-09-17T14:35:42.932Z,58.60
2022-09-17T14:38:28.384Z,58.70
2022-09-17T14:41:19.187Z,57.20
2022-09-17T14:43:49.418Z,56.50
2022-09-17T14:46:33.842Z,56.80
2022-09-17T14:49:38.588Z,56.80
2022-09-17T14:52:32.214Z,57.20
2022-09-17T14:55:21.031Z,56.80
2022-09-17T14:57:55.808Z,57.40
2022-09-17T15:00:34.246Z,57.70
2022-09-17T15:03:01.939Z,58.70
2022-09-17T15:05:33.644Z,59.60
2022-09-17T15:08:21.923Z,59.90
2022-09-17T15:10:58.663Z,60.60
2022-09-17T15:13:52.902Z,61.30
2022-09-17T15:16:26.812Z,61.30
2022-09-17T15:18:57.519Z,60.90
2022-09-17T15:21:30.674Z,60.50
2022-09-17T15:24:21.328Z,60.20
2022-09-17T15:26:52.429Z,60.50
2022-09-17T15:29:26.671Z,60.80
2022-09-17T15:31:55.301Z,60.90
2022-09-17T15:34:23.046Z,60.70
2022-09-17T15:37:19.328Z,60.40
2022-09-17T15:39:51.591Z,60.30
2022-09-17T15:42:31.235Z,59.90
2022-09-17T15:45:27.669Z,60.20
2022-09-17T15:48:02.334Z,60.20
2022-09-17T15:50:50.023Z,60.20
2022-09-17T15:53:30.292Z,61.30
2022-09-17T15:56:13.207Z,61.40
2022-09-17T15:58:46.182Z,62.30
2022-09-17T16:01:16.607Z,62.60
2022-09-17T16:03:44.023Z,61.90
2022-09-17T16:06:20.951Z,61.60
2022-09-17T16:08:59.241Z,62.30
2022-09-17T16:11:29.401Z,62.20
2022-09-17T16:13:58.696Z,61.30
2022-09-17T16:16:35.961Z,61.90
2022-09-17T16:19:04.476Z,63.00
2022-09-17T16:21:32.281Z,62.60
2022-09-17T16:23:59.612Z,62.10
2022-09-17T16:26:30.712Z,62.10
2022-09-17T16:29:04.689Z,62.60
2022-09-17T16:31:33.318Z,63.00
2022-09-17T16:34:00.865Z,63.20
2022-09-17T16:36:31.134Z,62.90
2022-09-17T16:38:59.201Z,63.50
2022-09-17T16:41:26.579Z,63.70
2022-09-17T16:43:53.986Z,64.10
2022-09-17T16:46:21.419Z,64.40
2022-09-17T16:48:51.803Z,64.80
2022-09-17T16:51:19.130Z,65.30
2022-09-17T16:53:46.347Z,65.20
2022-09-17T16:56:15.399Z,65.10
2022-09-17T16:58:42.687Z,65.50
2022-09-17T17:01:14.465Z,65.70
2022-09-17T17:03:42.212Z,65.60
2022-09-17T17:06:20.316Z,65.50
2022-09-17T17:08:48.444Z,65.50
2022-09-17T17:11:15.685Z,65.80
2022-09-17T17:13:43.766Z,65.80
2022-09-17T17:16:13.409Z,66.00
2022-09-17T17:18:45.219Z,66.40
2022-09-17T17:21:14.549Z,66.90
2022-09-17T17:23:44.184Z,66.50
2022-09-17T17:26:11.421Z,66.70
2022-09-17T17:28:38.521Z,66.80
2022-09-17T17:31:06.656Z,67.00
2022-09-17T17:33:34.165Z,67.10
2022-09-17T17:36:07.316Z,67.20
2022-09-17T17:38:35.947Z,67.30
2022-09-17T17:41:09.142Z,67.70
2022-09-17T17:43:36.722Z,67.70
2022-09-17T17:46:09.337Z,67.80
2022-09-17T17:48:37.151Z,68.10
2022-09-17T17:51:09.543Z,68.30
2022-09-17T17:53:37.892Z,68.30
2022-09-17T17:56:07.042Z,68.30
2022-09-17T17:58:35.569Z,68.40
2022-09-17T18:01:18.491Z,68.60
2022-09-17T18:03:45.747Z,68.40
2022-09-17T18:06:13.416Z,68.60
2022-09-17T18:08:43.261Z,68.70
2022-09-17T18:11:11.512Z,68.80
2022-09-17T18:13:40.336Z,68.70
2022-09-17T18:16:10.892Z,68.80
2022-09-17T18:18:44.363Z,69.30
2022-09-17T18:21:21.060Z,69.50
2022-09-17T18:23:49.269Z,69.70
2022-09-17T18:26:22.347Z,70.20
2022-09-17T18:28:50.576Z,70.40
2022-09-17T18:31:32.438Z,70.70
2022-09-17T18:34:08.454Z,70.50
2022-09-17T18:36:36.969Z,69.20
2022-09-17T18:39:33.161Z,68.90
2022-09-17T18:41:53.386Z,68.60
2022-09-17T18:44:21.953Z,68.60
2022-09-17T18:46:51.183Z,68.60
2022-09-17T18:49:18.767Z,68.70
2022-09-17T18:51:46.194Z,68.90
2022-09-17T18:54:15.930Z,69.20
2022-09-17T18:56:43.162Z,69.10
2022-09-17T18:59:11.130Z,69.10
2022-09-17T19:01:38.830Z,65.90
2022-09-17T19:04:07.849Z,62.00
2022-09-17T19:06:35.786Z,55.00
2022-09-17T19:09:05.859Z,50.90
2022-09-17T19:11:35.758Z,49.50
2022-09-17T19:14:03.052Z,47.70
2022-09-17T19:16:30.706Z,47.30
2022-09-17T19:18:57.888Z,46.90
2022-09-17T19:21:25.327Z,46.50
2022-09-17T19:23:52.828Z,46.30
2022-09-17T19:26:23.088Z,46.20
2022-09-17T19:28:58.796Z,45.30
2022-09-17T19:31:27.375Z,45.40
2022-09-17T19:33:55.525Z,45.50
2022-09-17T19:36:22.699Z,45.70
2022-09-17T19:38:50.613Z,45.70
2022-09-17T19:41:20.235Z,45.50
2022-09-17T19:43:51.730Z,45.80
2022-09-17T19:46:21.349Z,46.00
2022-09-17T19:48:54.633Z,46.20
2022-09-17T19:51:24.300Z,45.10
2022-09-17T19:53:51.935Z,45.40
2022-09-17T19:56:23.729Z,45.30
2022-09-17T19:58:51.580Z,45.00
2022-09-17T20:01:21.295Z,44.90
2022-09-17T20:03:48.976Z,44.80
2022-09-17T20:06:19.138Z,45.00
2022-09-17T20:08:48.497Z,44.80
2022-09-17T20:11:16.829Z,44.40
2022-09-17T20:13:44.259Z,44.40
2022-09-17T20:16:39.109Z,44.60
2022-09-17T20:19:08.116Z,44.90
2022-09-17T20:21:35.382Z,45.00
2022-09-17T20:24:03.391Z,45.30
2022-09-17T20:26:30.622Z,45.20
2022-09-17T20:28:57.910Z,45.60
2022-09-17T20:31:28.396Z,45.10
2022-09-17T20:33:58.423Z,45.10
2022-09-17T20:36:28.209Z,44.90
2022-09-17T20:39:22.756Z,45.10
2022-09-17T20:41:43.233Z,45.30
2022-09-17T20:44:10.418Z,45.70
2022-09-17T20:46:37.685Z,45.90
2022-09-17T20:49:05.457Z,46.20
2022-09-17T20:51:34.123Z,46.50
2022-09-17T20:54:02.121Z,46.70
2022-09-17T20:56:33.469Z,47.10
2022-09-17T20:59:18.883Z,47.50
2022-09-17T21:01:50.067Z,47.80
2022-09-17T21:04:20.033Z,48.20
2022-09-17T21:06:52.773Z,48.40
2022-09-17T21:09:20.378Z,48.60
2022-09-17T21:11:48.894Z,48.80
2022-09-17T21:14:17.411Z,49.00
2022-09-17T21:16:45.887Z,49.20
2022-09-17T21:19:16.265Z,49.50
2022-09-17T21:21:43.900Z,49.70
2022-09-17T21:24:12.519Z,50.00
2022-09-17T21:26:39.810Z,50.30
2022-09-17T21:29:07.168Z,50.40
2022-09-17T21:31:37.047Z,50.50
2022-09-17T21:34:07.463Z,50.70
2022-09-17T21:36:36.840Z,50.90
2022-09-17T21:39:15.623Z,51.00
2022-09-17T21:41:44.322Z,51.10
2022-09-17T21:44:12.376Z,51.20
2022-09-17T21:46:41.163Z,51.30
2022-09-17T21:49:08.819Z,51.40
2022-09-17T21:51:40.996Z,51.40
2022-09-17T21:54:13.889Z,51.40
2022-09-17T21:56:42.419Z,51.40
2022-09-17T21:59:12.608Z,51.30
2022-09-17T22:01:48.638Z,51.30
2022-09-17T22:04:19.024Z,51.30
2022-09-17T22:06:47.579Z,51.40
2022-09-17T22:09:18.585Z,51.80
2022-09-17T22:11:46.390Z,52.20
2022-09-17T22:14:19.861Z,52.60
2022-09-17T22:16:51.099Z,53.00
2022-09-17T22:19:19.991Z,53.40
2022-09-17T22:21:51.540Z,53.70
2022-09-17T22:24:20.398Z,54.00
2022-09-17T22:26:54.152Z,54.40
2022-09-17T22:29:24.802Z,54.60
2022-09-17T22:31:54.457Z,55.00
2022-09-17T22:34:29.149Z,55.40
2022-09-17T22:37:04.728Z,55.60
2022-09-17T22:39:37.237Z,55.80
2022-09-17T22:42:08.051Z,55.80
2022-09-17T22:44:35.253Z,55.70
2022-09-17T22:47:02.345Z,56.10
2022-09-17T22:49:29.671Z,56.30
2022-09-17T22:51:56.797Z,56.60
2022-09-17T22:54:24.002Z,56.70
2022-09-17T22:56:51.179Z,57.10
2022-09-17T22:59:18.628Z,57.30
2022-09-17T23:01:45.831Z,57.40
2022-09-17T23:04:13.219Z,57.60
2022-09-17T23:06:43.927Z,57.50
2022-09-17T23:09:13.876Z,57.60
2022-09-17T23:11:41.246Z,57.60
2022-09-17T23:14:12.343Z,57.60
2022-09-17T23:16:45.637Z,57.50
2022-09-17T23:19:14.091Z,57.30
2022-09-17T23:21:41.707Z,57.10
2022-09-17T23:24:10.201Z,56.80
2022-09-17T23:26:37.597Z,56.50
2022-09-17T23:29:05.821Z,56.10
2022-09-17T23:31:35.089Z,55.80
2022-09-17T23:34:04.044Z,54.90
2022-09-17T23:36:33.524Z,54.00
2022-09-17T23:39:02.428Z,54.30
2022-09-17T23:41:33.015Z,55.50
2022-09-17T23:44:02.339Z,56.20
2022-09-17T23:46:32.126Z,56.80
2022-09-17T23:48:59.899Z,57.20
2022-09-17T23:51:30.707Z,57.10
2022-09-17T23:53:58.751Z,57.20
2022-09-17T23:56:27.071Z,57.10
2022-09-17T23:58:55.874Z,57.30
